Time;durP1;ratioP1;P1;durP2;ratioP2;P2;SDS_P1;SDS_P2;PMS_P1;PMS_P2;Temp;Humidity;BMP_temperature;BMP_pressure;BME280_temperature;BME280_humidity;BME280_pressure;Samples;Min_cycle;Max_cycle;Signal;HPM_P1;HPM_P2
2021/06/26 00:01:54;;;;;;;19.95;17.60;;;;;;;14.95;100.00;96578.91;5030056;28;20734;-75
2021/06/26 00:04:20;;;;;;;21.38;17.23;;;;;;;14.80;100.00;96575.41;5042821;28;20100;-77
2021/06/26 00:06:46;;;;;;;19.38;16.80;;;;;;;14.64;100.00;96584.28;5045224;28;20128;-75
2021/06/26 00:09:11;;;;;;;18.45;14.55;;;;;;;14.65;100.00;96578.00;5044673;28;20211;-75
2021/06/26 00:11:37;;;;;;;17.23;14.65;;;;;;;14.53;100.00;96579.41;5046151;28;20116;-77
2021/06/26 00:14:04;;;;;;;16.05;13.40;;;;;;;14.47;100.00;96580.91;5037598;28;20601;-77
2021/06/26 00:16:30;;;;;;;19.23;14.75;;;;;;;14.47;100.00;96572.97;5045956;28;20604;-77
2021/06/26 00:18:56;;;;;;;15.38;13.77;;;;;;;14.48;100.00;96566.66;5047336;28;20107;-77
2021/06/26 00:21:22;;;;;;;15.80;13.98;;;;;;;14.51;100.00;96566.34;5047815;28;20398;-76
2021/06/26 00:23:47;;;;;;;17.75;15.80;;;;;;;14.55;100.00;96556.22;5045230;28;20058;-76
2021/06/26 00:26:13;;;;;;;121.03;20.13;;;;;;;14.35;100.00;96556.69;5045874;28;20063;-77
2021/06/26 00:28:39;;;;;;;218.10;19.45;;;;;;;14.22;100.00;96556.41;5044978;28;20035;-77
2021/06/26 00:31:05;;;;;;;278.02;19.73;;;;;;;14.00;100.00;96557.19;5035852;28;20025;-77
2021/06/26 00:33:30;;;;;;;128.48;16.75;;;;;;;13.99;100.00;96568.78;5047152;28;20017;-76
2021/06/26 00:35:56;;;;;;;107.07;14.35;;;;;;;14.02;100.00;96560.50;5045134;28;20037;-77
2021/06/26 00:38:21;;;;;;;173.93;20.60;;;;;;;13.99;100.00;96558.19;5045193;28;20029;-77
2021/06/26 00:40:47;;;;;;;217.73;19.25;;;;;;;13.95;100.00;96557.72;5045329;28;20037;-77
2021/06/26 00:43:13;;;;;;;208.90;19.35;;;;;;;13.91;100.00;96559.84;5044825;28;20540;-77
2021/06/26 00:45:39;;;;;;;89.90;14.40;;;;;;;13.89;100.00;96553.94;5045782;28;20033;-75
2021/06/26 00:48:05;;;;;;;67.38;16.00;;;;;;;13.98;100.00;96548.59;5044494;28;20989;-77
2021/06/26 00:50:31;;;;;;;34.78;13.05;;;;;;;13.99;100.00;96560.84;5046483;28;20051;-77
2021/06/26 00:52:57;;;;;;;24.75;12.35;;;;;;;13.93;100.00;96564.16;5044992;28;20052;-77
2021/06/26 00:55:23;;;;;;;57.83;15.48;;;;;;;13.87;100.00;96558.56;5043995;28;20025;-77
2021/06/26 00:57:56;;;;;;;38.67;13.43;;;;;;;13.86;100.00;96556.91;5045131;28;20047;-76
2021/06/26 01:00:23;;;;;;;16.40;11.77;;;;;;;13.79;100.00;96558.59;5060498;28;20131;-77
2021/06/26 01:02:49;;;;;;;15.80;12.48;;;;;;;13.80;100.00;96554.94;5043846;28;20063;-76
2021/06/26 01:05:15;;;;;;;17.15;14.57;;;;;;;13.75;100.00;96552.00;5042488;28;20065;-76
2021/06/26 01:07:41;;;;;;;21.23;15.35;;;;;;;13.76;100.00;96550.19;5039381;28;20043;-76
2021/06/26 01:10:08;;;;;;;19.63;17.23;;;;;;;13.72;100.00;96549.72;5044076;28;20037;-77
2021/06/26 01:12:34;;;;;;;19.50;15.73;;;;;;;13.72;100.00;96539.13;5044885;28;20055;-77
2021/06/26 01:15:00;;;;;;;19.67;16.02;;;;;;;13.72;100.00;96543.59;5045832;28;20067;-77
2021/06/26 01:17:26;;;;;;;20.13;16.77;;;;;;;13.64;100.00;96539.16;5035905;28;20021;-76
2021/06/26 01:19:52;;;;;;;20.15;16.90;;;;;;;13.62;100.00;96539.34;5043924;28;20028;-77
2021/06/26 01:22:23;;;;;;;18.07;15.20;;;;;;;13.67;100.00;96538.81;5041636;28;20134;-77
2021/06/26 01:24:53;;;;;;;86.82;17.67;;;;;;;13.55;100.00;96537.56;5043839;28;20033;-76
2021/06/26 01:27:19;;;;;;;193.77;18.65;;;;;;;13.44;100.00;96536.06;5043601;28;20086;-77
2021/06/26 01:29:50;;;;;;;131.30;15.73;;;;;;;13.46;100.00;96541.22;5035284;28;20025;-77
2021/06/26 01:32:18;;;;;;;108.13;15.47;;;;;;;13.42;100.00;96538.91;5028704;28;20044;-76
2021/06/26 01:34:45;;;;;;;25.30;11.88;;;;;;;13.42;100.00;96535.44;5045815;28;20102;-77
2021/06/26 01:37:11;;;;;;;47.72;12.30;;;;;;;13.40;100.00;96532.94;5043934;28;20447;-76
2021/06/26 01:39:37;;;;;;;35.50;13.90;;;;;;;13.37;100.00;96532.47;5043569;28;20024;-75
2021/06/26 01:42:04;;;;;;;14.73;12.38;;;;;;;13.34;100.00;96538.91;5045278;28;20025;-76
2021/06/26 01:44:30;;;;;;;12.20;10.00;;;;;;;13.29;100.00;96529.84;5044317;28;20024;-77
2021/06/26 01:46:55;;;;;;;20.50;9.90;;;;;;;13.24;100.00;96525.06;5043664;28;20110;-77
2021/06/26 01:49:21;;;;;;;11.00;9.48;;;;;;;13.28;100.00;96531.69;5044128;28;20078;-76
2021/06/26 01:51:47;;;;;;;10.93;9.05;;;;;;;13.27;100.00;96522.09;5045822;28;20041;-76
2021/06/26 01:54:13;;;;;;;114.65;10.77;;;;;;;13.13;100.00;96534.13;5043641;28;20029;-76
2021/06/26 01:56:39;;;;;;;141.90;12.47;;;;;;;13.02;100.00;96531.03;5043352;28;20112;-76
2021/06/26 01:59:06;;;;;;;75.40;9.37;;;;;;;12.89;100.00;96528.91;5035379;28;20020;-76
2021/06/26 02:01:35;;;;;;;20.33;8.67;;;;;;;12.92;100.00;96524.09;5045595;28;20028;-77
2021/06/26 02:04:01;;;;;;;29.27;11.70;;;;;;;12.83;100.00;96519.81;5047251;28;20660;-77
2021/06/26 02:06:27;;;;;;;19.17;11.37;;;;;;;12.78;100.00;96529.25;5049851;28;20103;-77
2021/06/26 02:08:53;;;;;;;12.97;10.37;;;;;;;12.82;100.00;96525.28;5051361;28;20029;-75
2021/06/26 02:11:18;;;;;;;18.13;10.77;;;;;;;12.80;100.00;96525.44;5049669;28;20087;-77
2021/06/26 02:13:44;;;;;;;17.67;14.13;;;;;;;12.82;100.00;96526.09;5050869;28;20013;-76
2021/06/26 02:16:10;;;;;;;20.67;15.93;;;;;;;12.82;100.00;96517.34;5051867;28;20036;-76
2021/06/26 02:18:35;;;;;;;22.87;16.80;;;;;;;12.83;100.00;96519.00;5033240;28;20054;-77
2021/06/26 02:21:01;;;;;;;22.53;18.43;;;;;;;12.85;100.00;96520.50;5033758;28;20076;-77
2021/06/26 02:23:27;;;;;;;23.00;18.93;;;;;;;12.82;100.00;96515.53;5050082;28;20024;-77
2021/06/26 02:25:54;;;;;;;24.37;18.93;;;;;;;12.84;100.00;96513.53;5050104;28;20041;-77
2021/06/26 02:28:20;;;;;;;25.70;20.30;;;;;;;12.85;100.00;96523.13;5037913;28;20367;-76
2021/06/26 02:30:46;;;;;;;27.80;20.60;;;;;;;12.85;100.00;96517.84;5044383;28;20120;-77
2021/06/26 02:33:11;;;;;;;25.00;19.53;;;;;;;12.85;100.00;96520.50;5058814;28;20108;-77
2021/06/26 02:35:37;;;;;;;25.17;19.90;;;;;;;12.73;100.00;96524.44;5041762;28;20025;-77
2021/06/26 02:38:03;;;;;;;26.03;20.40;;;;;;;12.66;100.00;96518.19;5050645;28;20052;-76
2021/06/26 02:40:28;;;;;;;26.27;19.53;;;;;;;12.64;100.00;96530.69;5066455;28;20548;-77
2021/06/26 02:42:54;;;;;;;32.97;22.20;;;;;;;12.64;100.00;96522.78;5043252;28;20587;-77
2021/06/26 02:45:20;;;;;;;33.07;24.00;;;;;;;12.74;100.00;96534.84;5060574;28;20037;-77
2021/06/26 02:47:46;;;;;;;35.07;24.00;;;;;;;12.61;100.00;96537.16;5049968;28;20032;-77
2021/06/26 02:50:12;;;;;;;31.40;23.87;;;;;;;12.58;100.00;96524.28;5033816;28;20029;-77
2021/06/26 02:52:38;;;;;;;33.97;24.00;;;;;;;12.55;100.00;96529.91;5044354;28;20064;-76
2021/06/26 02:55:04;;;;;;;36.70;24.20;;;;;;;12.55;100.00;96529.06;5048053;28;20056;-75
2021/06/26 02:57:30;;;;;;;29.53;22.27;;;;;;;12.55;100.00;96523.78;5032741;28;20045;-77
2021/06/26 02:59:57;;;;;;;30.80;22.77;;;;;;;12.53;100.00;96528.41;5049288;28;20137;-77
2021/06/26 03:02:25;;;;;;;31.37;22.20;;;;;;;12.44;100.00;96531.03;5048491;28;20021;-77
2021/06/26 03:04:51;;;;;;;31.23;22.47;;;;;;;12.38;100.00;96533.50;5047751;28;20037;-77
2021/06/26 03:07:17;;;;;;;27.57;19.93;;;;;;;12.33;100.00;96533.16;5046078;28;20013;-77
2021/06/26 03:09:43;;;;;;;29.23;23.10;;;;;;;12.30;100.00;96526.38;5047320;28;20033;-76
2021/06/26 03:12:09;;;;;;;35.57;24.87;;;;;;;12.29;100.00;96530.03;5047388;28;20040;-77
2021/06/26 03:14:35;;;;;;;30.93;22.97;;;;;;;12.33;100.00;96520.78;5049654;28;20044;-77
2021/06/26 03:17:01;;;;;;;35.63;25.00;;;;;;;12.31;100.00;96525.41;5046755;28;20032;-77
2021/06/26 03:19:26;;;;;;;33.27;24.73;;;;;;;12.36;100.00;96531.03;5048160;28;20456;-77
2021/06/26 03:21:52;;;;;;;34.47;24.70;;;;;;;12.38;100.00;96531.69;5047092;28;20505;-77
2021/06/26 03:24:17;;;;;;;32.10;24.93;;;;;;;12.34;100.00;96527.75;5046442;28;20025;-77
2021/06/26 03:26:43;;;;;;;32.63;24.60;;;;;;;12.38;100.00;96526.41;5043011;28;20035;-77
2021/06/26 03:29:09;;;;;;;34.37;24.90;;;;;;;12.40;100.00;96528.88;5045736;28;20128;-76
2021/06/26 03:31:35;;;;;;;33.10;23.30;;;;;;;12.42;100.00;96533.00;5037084;28;20020;-75
2021/06/26 03:34:01;;;;;;;27.27;22.10;;;;;;;12.41;100.00;96533.19;5047731;28;20039;-75
2021/06/26 03:36:26;;;;;;;26.40;20.50;;;;;;;12.43;100.00;96536.47;5046137;28;20036;-76
2021/06/26 03:38:52;;;;;;;21.20;16.70;;;;;;;12.36;100.00;96535.47;5039479;28;20037;-76
2021/06/26 03:41:23;;;;;;;29.73;16.17;;;;;;;12.27;100.00;96531.97;5047694;28;20906;-77
2021/06/26 03:43:50;;;;;;;113.77;16.80;;;;;;;12.24;100.00;96533.16;5045651;28;20068;-76
2021/06/26 03:46:16;;;;;;;20.97;11.10;;;;;;;12.26;100.00;96535.63;5047943;28;20032;-77
2021/06/26 03:48:42;;;;;;;35.17;13.83;;;;;;;12.17;100.00;96533.94;5033926;28;20044;-77
2021/06/26 03:51:07;;;;;;;17.10;13.63;;;;;;;12.20;100.00;96533.63;5046466;28;20021;-76
2021/06/26 03:53:34;;;;;;;16.97;13.97;;;;;;;12.26;100.00;96528.53;5046006;28;20120;-76
2021/06/26 03:56:00;;;;;;;15.80;12.27;;;;;;;12.31;100.00;96527.22;5046087;28;20033;-76
2021/06/26 03:58:26;;;;;;;16.53;12.13;;;;;;;12.35;100.00;96526.75;5042062;28;20090;-75
2021/06/26 04:00:52;;;;;;;14.33;11.67;;;;;;;12.41;100.00;96531.38;5045939;28;20029;-76
2021/06/26 04:03:18;;;;;;;13.57;10.97;;;;;;;12.46;100.00;96531.69;5045508;28;20108;-77
2021/06/26 04:05:45;;;;;;;13.03;10.53;;;;;;;12.46;100.00;96529.03;5045162;28;20434;-77
2021/06/26 04:08:11;;;;;;;16.33;10.60;;;;;;;12.46;100.00;96530.88;5044365;28;20025;-77
2021/06/26 04:10:38;;;;;;;13.60;10.90;;;;;;;12.52;100.00;96530.22;5062089;28;20032;-76
2021/06/26 04:13:05;;;;;;;13.23;10.40;;;;;;;12.56;100.00;96533.34;5045373;28;20049;-77
2021/06/26 04:15:32;;;;;;;32.17;11.87;;;;;;;12.56;100.00;96541.25;5042654;28;20033;-77
2021/06/26 04:17:58;;;;;;;198.33;15.03;;;;;;;12.45;100.00;96535.31;5059357;28;20159;-77
2021/06/26 04:20:23;;;;;;;228.63;16.00;;;;;;;12.18;100.00;96536.44;5046681;28;20099;-75
2021/06/26 04:22:49;;;;;;;49.77;9.73;;;;;;;12.30;100.00;96542.22;5045951;28;20510;-77
2021/06/26 04:25:16;;;;;;;96.37;11.67;;;;;;;12.34;100.00;96533.00;5044672;28;20029;-77
2021/06/26 04:27:43;;;;;;;122.47;14.07;;;;;;;12.40;100.00;96537.59;5039239;28;20109;-76
2021/06/26 04:30:10;;;;;;;49.20;11.30;;;;;;;12.40;100.00;96537.59;5046590;28;20103;-75
2021/06/26 04:32:37;;;;;;;75.43;11.73;;;;;;;12.43;100.00;96537.28;5041832;28;20030;-76
2021/06/26 04:35:08;;;;;;;104.17;14.60;;;;;;;12.49;100.00;96539.28;5043849;28;20025;-76
2021/06/26 04:37:35;;;;;;;86.47;10.93;;;;;;;12.32;100.00;96542.88;5045914;28;20052;-76
2021/06/26 04:40:02;;;;;;;105.83;13.63;;;;;;;12.31;100.00;96546.53;5044750;28;20032;-75
2021/06/26 04:42:28;;;;;;;18.40;12.80;;;;;;;12.53;100.00;96537.13;5045371;28;20078;-76
2021/06/26 04:44:54;;;;;;;16.53;13.73;;;;;;;12.63;100.00;96535.16;5046412;28;20029;-76
2021/06/26 04:47:20;;;;;;;18.37;14.30;;;;;;;12.80;100.00;96535.97;5045164;28;20048;-76
2021/06/26 04:49:46;;;;;;;18.33;13.90;;;;;;;12.97;100.00;96536.78;5044963;28;20032;-75
2021/06/26 04:52:11;;;;;;;23.33;15.07;;;;;;;12.88;100.00;96540.44;5036643;28;20037;-76
2021/06/26 04:54:37;;;;;;;61.00;14.13;;;;;;;12.88;100.00;96541.28;5043053;28;20178;-77
2021/06/26 04:57:03;;;;;;;20.57;14.20;;;;;;;13.05;100.00;96543.91;5047630;28;20040;-75
2021/06/26 04:59:29;;;;;;;19.90;15.10;;;;;;;13.16;100.00;96543.53;5043737;28;20032;-76
2021/06/26 05:01:55;;;;;;;18.63;15.47;;;;;;;13.15;100.00;96541.91;5036008;28;20148;-76
2021/06/26 05:04:21;;;;;;;23.63;18.43;;;;;;;13.13;100.00;96535.97;5044195;28;20477;-76
2021/06/26 05:06:47;;;;;;;20.77;17.17;;;;;;;13.43;100.00;96531.78;5044145;28;20037;-76
2021/06/26 05:09:13;;;;;;;21.83;17.80;;;;;;;13.69;100.00;96534.19;5040244;28;20025;-76
2021/06/26 05:11:39;;;;;;;21.57;17.50;;;;;;;13.74;100.00;96533.66;5057072;28;20104;-77
2021/06/26 05:14:05;;;;;;;21.57;18.50;;;;;;;13.80;100.00;96525.88;5044623;28;20041;-76
2021/06/26 05:16:31;;;;;;;22.90;17.10;;;;;;;13.91;100.00;96533.41;5061425;28;20709;-77
2021/06/26 05:18:56;;;;;;;21.00;16.40;;;;;;;14.16;100.00;96528.00;5043517;28;20037;-75
2021/06/26 05:21:22;;;;;;;21.87;16.97;;;;;;;14.22;100.00;96535.25;5027419;28;20029;-77
2021/06/26 05:23:49;;;;;;;21.80;17.45;;;;;;;14.23;100.00;96533.44;5032293;28;20387;-77
2021/06/26 05:26:15;;;;;;;20.40;18.10;;;;;;;14.41;100.00;96535.78;5061052;28;20055;-77
2021/06/26 05:28:41;;;;;;;19.90;17.08;;;;;;;14.57;100.00;96538.34;5041005;28;20087;-77
2021/06/26 05:31:07;;;;;;;23.33;18.50;;;;;;;14.90;100.00;96535.47;5045960;28;20037;-76
2021/06/26 05:33:32;;;;;;;20.90;17.73;;;;;;;15.03;100.00;96536.50;5043914;28;20055;-77
2021/06/26 05:35:59;;;;;;;22.85;18.95;;;;;;;15.27;100.00;96538.09;5043201;28;20097;-75
2021/06/26 05:38:25;;;;;;;22.85;18.92;;;;;;;15.38;100.00;96541.28;5041090;28;20029;-77
2021/06/26 05:40:50;;;;;;;22.80;17.98;;;;;;;15.49;100.00;96544.31;5042011;28;20044;-77
2021/06/26 05:43:16;;;;;;;24.30;19.70;;;;;;;15.57;100.00;96535.44;5047386;28;20025;-77
2021/06/26 05:45:42;;;;;;;19.58;16.58;;;;;;;15.94;97.86;96536.38;5043512;28;20070;-76
2021/06/26 05:48:08;;;;;;;30.85;25.25;;;;;;;16.29;97.51;96534.72;5043211;28;20017;-76
2021/06/26 05:50:34;;;;;;;24.02;19.45;;;;;;;16.51;95.83;96538.22;5036330;28;20513;-77
2021/06/26 05:53:00;;;;;;;19.77;17.05;;;;;;;16.94;92.73;96528.44;5043985;28;20032;-76
2021/06/26 05:55:27;;;;;;;23.90;19.05;;;;;;;17.04;92.35;96525.47;5045763;28;20033;-77
2021/06/26 05:57:53;;;;;;;24.60;18.08;;;;;;;16.65;93.33;96529.38;5043944;28;20127;-77
2021/06/26 06:00:21;;;;;;;23.02;18.65;;;;;;;17.04;92.35;96522.81;5043398;28;20032;-76
2021/06/26 06:02:48;;;;;;;20.52;16.67;;;;;;;17.60;91.40;96514.78;5043247;28;20013;-77
2021/06/26 06:05:15;;;;;;;21.33;17.60;;;;;;;17.33;89.23;96526.28;5041931;28;20024;-77
2021/06/26 06:07:42;;;;;;;20.40;16.55;;;;;;;18.03;87.64;96527.91;5043133;28;20021;-76
2021/06/26 06:10:10;;;;;;;21.10;18.20;;;;;;;17.19;91.20;96522.69;5043893;28;20048;-76
2021/06/26 06:12:37;;;;;;;24.23;20.33;;;;;;;17.91;89.72;96526.84;5042123;28;20109;-77
2021/06/26 06:15:05;;;;;;;21.02;18.13;;;;;;;17.98;88.47;96529.53;5043505;28;20037;-76
2021/06/26 06:17:31;;;;;;;26.75;22.58;;;;;;;17.71;89.78;96528.56;5042708;28;20072;-76
2021/06/26 06:19:57;;;;;;;25.92;23.00;;;;;;;17.72;89.54;96527.53;5045850;28;20502;-77
2021/06/26 06:22:24;;;;;;;27.05;22.77;;;;;;;18.65;84.64;96517.25;5039288;28;20025;-77
2021/06/26 06:24:51;;;;;;;29.77;23.48;;;;;;;18.80;83.67;96523.22;5041513;28;20084;-76
2021/06/26 06:27:17;;;;;;;29.17;23.77;;;;;;;19.04;82.47;96524.44;5035472;28;20028;-78
2021/06/26 06:29:44;;;;;;;34.80;24.83;;;;;;;18.54;82.74;96530.13;5046838;28;20032;-79
2021/06/26 06:32:09;;;;;;;27.55;22.20;;;;;;;18.82;83.96;96521.16;5044661;28;20024;-76
2021/06/26 06:34:35;;;;;;;26.75;23.42;;;;;;;19.66;80.97;96527.69;5029871;28;20029;-75
2021/06/26 06:37:01;;;;;;;24.75;21.52;;;;;;;19.79;78.82;96535.66;5045849;28;20021;-77
2021/06/26 06:39:26;;;;;;;27.10;23.40;;;;;;;19.48;78.82;96533.63;5065581;28;20044;-78
2021/06/26 06:41:53;;;;;;;28.30;23.67;;;;;;;19.22;78.96;96531.84;5047447;28;20507;-79
2021/06/26 06:44:18;;;;;;;27.35;23.63;;;;;;;19.77;78.54;96527.84;5053734;28;20025;-78
2021/06/26 06:46:44;;;;;;;29.60;24.80;;;;;;;20.02;77.03;96530.66;5052254;28;20033;-77
2021/06/26 06:49:10;;;;;;;27.42;23.38;;;;;;;20.33;74.49;96529.09;5045305;28;20033;-79
2021/06/26 06:51:36;;;;;;;26.65;22.73;;;;;;;20.59;75.62;96529.97;5045872;28;20036;-77
2021/06/26 06:54:03;;;;;;;26.13;22.60;;;;;;;21.20;71.34;96524.00;5047120;28;20111;-77
2021/06/26 06:56:29;;;;;;;26.08;22.63;;;;;;;20.43;74.14;96523.28;5048826;28;20021;-77
2021/06/26 06:58:55;;;;;;;26.63;22.63;;;;;;;20.63;75.35;96528.53;5063811;28;20066;-77
2021/06/26 07:01:21;;;;;;;24.17;20.95;;;;;;;21.35;72.04;96526.34;5058871;28;20025;-77
2021/06/26 07:03:46;;;;;;;24.23;21.70;;;;;;;22.06;69.61;96524.97;5045041;28;20039;-75
2021/06/26 07:06:12;;;;;;;24.30;21.65;;;;;;;21.08;73.02;96531.09;5030690;28;20838;-77
2021/06/26 07:08:38;;;;;;;24.08;21.52;;;;;;;20.99;72.79;96529.72;5062873;28;20033;-77
2021/06/26 07:11:04;;;;;;;21.98;19.67;;;;;;;22.26;69.17;96512.19;5062940;28;20036;-77
2021/06/26 07:13:29;;;;;;;23.67;19.92;;;;;;;22.07;70.51;96514.06;5048651;28;20036;-77
2021/06/26 07:15:55;;;;;;;23.55;21.05;;;;;;;21.18;73.96;96510.00;5049212;28;20056;-76
2021/06/26 07:18:21;;;;;;;23.20;20.13;;;;;;;20.84;72.96;96519.34;5046907;28;20044;-76
2021/06/26 07:20:47;;;;;;;21.77;19.20;;;;;;;21.76;70.82;96511.53;5049015;28;20017;-77
2021/06/26 07:23:13;;;;;;;22.98;19.80;;;;;;;22.07;68.21;96513.25;5045234;28;20741;-77
2021/06/26 07:25:39;;;;;;;22.92;19.42;;;;;;;22.81;67.77;96504.00;5048259;28;20025;-77
2021/06/26 07:28:04;;;;;;;22.45;20.02;;;;;;;22.94;67.00;96513.72;5040849;28;20033;-77
2021/06/26 07:30:30;;;;;;;22.25;19.08;;;;;;;23.34;65.37;96517.59;5063538;28;20025;-77
2021/06/26 07:32:56;;;;;;;22.17;19.10;;;;;;;22.95;64.54;96514.53;5046136;28;20043;-77
2021/06/26 07:35:22;;;;;;;25.10;19.05;;;;;;;24.28;60.33;96512.94;5049096;28;20100;-77
2021/06/26 07:37:48;;;;;;;23.65;19.10;;;;;;;24.07;60.31;96509.03;5048561;28;20479;-77
2021/06/26 07:40:14;;;;;;;20.42;18.23;;;;;;;23.27;61.79;96515.03;5046626;28;20042;-77
2021/06/26 07:42:40;;;;;;;22.95;20.45;;;;;;;22.55;64.45;96509.75;5046433;28;20036;-77
2021/06/26 07:45:06;;;;;;;21.80;18.52;;;;;;;23.56;60.75;96515.97;5047478;28;20041;-77
2021/06/26 07:47:33;;;;;;;21.55;19.00;;;;;;;24.53;58.18;96506.44;5046820;28;20467;-75
2021/06/26 07:49:59;;;;;;;24.58;19.00;;;;;;;24.09;58.30;96512.31;5031291;28;20032;-76
2021/06/26 07:52:24;;;;;;;23.30;18.25;;;;;;;24.03;58.14;96513.25;5047745;28;20032;-77
2021/06/26 07:54:50;;;;;;;22.60;18.48;;;;;;;22.46;65.46;96513.78;5047351;28;20043;-77
2021/06/26 07:57:16;;;;;;;21.25;18.10;;;;;;;21.97;65.49;96507.59;5030741;28;20033;-78
2021/06/26 07:59:41;;;;;;;20.05;17.95;;;;;;;22.98;61.27;96498.00;5049110;28;20017;-78
2021/06/26 08:02:07;;;;;;;19.83;16.83;;;;;;;23.54;62.22;96491.25;5034974;28;20037;-77
2021/06/26 08:04:33;;;;;;;20.00;17.77;;;;;;;24.16;59.50;96496.84;5047817;28;20096;-77
2021/06/26 08:06:59;;;;;;;19.00;15.70;;;;;;;24.99;56.31;96489.22;5062879;28;20064;-77
2021/06/26 08:09:24;;;;;;;20.33;17.63;;;;;;;22.69;60.74;96503.13;5046831;28;20391;-77
2021/06/26 08:11:50;;;;;;;17.42;15.07;;;;;;;25.50;55.29;96491.91;5047830;28;20036;-77
2021/06/26 08:14:16;;;;;;;20.27;18.17;;;;;;;26.07;53.61;96489.72;5047875;28;20100;-77
2021/06/26 08:16:41;;;;;;;20.55;17.35;;;;;;;27.37;49.44;96474.53;5049016;28;20363;-76
2021/06/26 08:19:07;;;;;;;17.75;15.70;;;;;;;25.02;54.02;96488.75;5047162;28;20029;-78
2021/06/26 08:21:33;;;;;;;16.80;15.00;;;;;;;26.24;50.64;96475.38;5048680;28;20021;-77
2021/06/26 08:23:58;;;;;;;19.55;13.88;;;;;;;26.47;49.82;96476.97;5046933;28;20029;-78
2021/06/26 08:26:24;;;;;;;16.52;14.57;;;;;;;26.61;48.27;96469.31;5047949;28;20054;-78
2021/06/26 08:28:50;;;;;;;15.82;14.20;;;;;;;24.12;55.23;96492.22;5046419;28;20048;-76
2021/06/26 08:31:15;;;;;;;15.00;13.00;;;;;;;25.89;49.50;96479.28;5047215;28;20127;-78
2021/06/26 08:33:41;;;;;;;14.88;13.20;;;;;;;25.71;47.94;96472.25;5048233;28;20021;-78
2021/06/26 08:36:07;;;;;;;17.55;15.60;;;;;;;25.43;49.27;96475.94;5038824;28;20442;-78
2021/06/26 08:38:33;;;;;;;16.92;13.68;;;;;;;24.60;52.02;96488.28;5046738;28;20021;-77
2021/06/26 08:40:59;;;;;;;14.10;12.60;;;;;;;24.99;50.53;96483.84;5044953;28;20037;-77
2021/06/26 08:43:27;;;;;;;15.23;13.10;;;;;;;25.19;50.79;96477.19;5030561;28;20024;-76
2021/06/26 08:45:53;;;;;;;17.40;15.00;;;;;;;25.42;50.96;96474.31;5044921;28;20446;-77
2021/06/26 08:48:20;;;;;;;22.23;19.90;;;;;;;26.59;48.66;96471.44;5046693;28;20020;-77
2021/06/26 08:50:46;;;;;;;16.52;13.57;;;;;;;26.86;47.15;96457.91;5047349;28;20780;-77
2021/06/26 08:53:11;;;;;;;13.90;12.45;;;;;;;28.01;44.52;96460.84;5039620;28;20029;-78
2021/06/26 08:55:37;;;;;;;14.95;12.73;;;;;;;25.38;49.07;96473.16;5048012;28;20063;-78
2021/06/26 08:58:04;;;;;;;15.82;12.75;;;;;;;26.93;47.87;96456.63;5065259;28;20029;-78
2021/06/26 09:00:31;;;;;;;13.52;11.02;;;;;;;26.19;47.22;96462.66;5048885;28;20021;-78
2021/06/26 09:03:17;;;;;;;15.10;12.25;;;;;;;27.20;44.33;96455.78;5048570;28;20023;-78
2021/06/26 09:05:45;;;;;;;12.60;11.30;;;;;;;24.09;52.19;96474.69;5033344;28;20057;-78
2021/06/26 09:08:16;;;;;;;11.88;10.50;;;;;;;26.60;48.00;96457.69;5061751;28;20522;-77
2021/06/26 09:10:47;;;;;;;12.43;10.20;;;;;;;29.11;41.73;96454.31;5062295;28;20720;-77
2021/06/26 09:13:24;;;;;;;11.93;10.73;;;;;;;28.18;43.68;96455.22;5040266;28;20254;-77
2021/06/26 09:16:06;;;;;;;14.05;11.13;;;;;;;24.34;50.73;96468.16;5037815;28;20143;-77
2021/06/26 09:18:58;;;;;;;14.73;11.05;;;;;;;26.17;46.02;96461.28;5056698;28;20032;-78
2021/06/26 09:21:35;;;;;;;12.93;11.33;;;;;;;26.48;45.65;96455.16;5044000;28;20037;-78
2021/06/26 09:24:07;;;;;;;11.75;10.48;;;;;;;26.77;46.62;96452.19;5046146;28;20404;-78
2021/06/26 09:26:35;;;;;;;11.23;9.98;;;;;;;25.99;48.77;96460.53;5048753;28;20035;-77
2021/06/26 09:29:12;;;;;;;12.23;9.85;;;;;;;28.51;41.75;96447.75;5048274;28;20124;-78
2021/06/26 09:31:51;;;;;;;10.07;8.32;;;;;;;29.88;40.41;96443.28;5047621;28;20037;-78
2021/06/26 09:34:17;;;;;;;11.00;9.90;;;;;;;27.19;44.24;96454.16;5062441;28;20040;-78
2021/06/26 09:36:43;;;;;;;10.70;8.73;;;;;;;26.41;44.30;96453.69;5048176;28;20086;-78
2021/06/26 09:39:11;;;;;;;9.13;7.60;;;;;;;26.93;44.46;96451.25;5048268;28;20078;-77
2021/06/26 09:41:39;;;;;;;8.77;7.40;;;;;;;28.65;41.26;96440.72;5048326;28;20017;-77
2021/06/26 09:44:12;;;;;;;9.82;7.22;;;;;;;27.18;43.26;96456.03;5048993;28;20028;-78
2021/06/26 09:46:46;;;;;;;9.70;8.15;;;;;;;27.77;43.15;96449.66;5051038;28;20116;-78
2021/06/26 09:49:12;;;;;;;9.27;6.85;;;;;;;28.67;40.95;96442.09;5045367;28;20668;-78
2021/06/26 09:51:38;;;;;;;13.27;8.77;;;;;;;28.86;39.14;96434.22;5028732;28;20082;-78
2021/06/26 09:54:07;;;;;;;8.80;7.20;;;;;;;27.80;40.38;96443.75;5060730;28;20036;-78
2021/06/26 09:56:51;;;;;;;8.55;6.47;;;;;;;26.87;42.38;96446.88;5041736;28;20021;-77
2021/06/26 09:59:19;;;;;;;7.68;6.63;;;;;;;27.95;41.58;96446.47;5046351;28;20052;-78
2021/06/26 10:01:46;;;;;;;9.93;8.15;;;;;;;28.14;39.66;96448.72;5041780;28;20009;-78
2021/06/26 10:04:16;;;;;;;8.93;6.72;;;;;;;28.69;39.34;96444.53;5053244;28;20028;-77
2021/06/26 10:06:43;;;;;;;10.95;6.78;;;;;;;25.21;44.83;96446.25;5046156;28;20088;-78
2021/06/26 10:09:09;;;;;;;9.40;7.40;;;;;;;25.42;44.81;96444.69;5047091;28;20828;-78
2021/06/26 10:11:36;;;;;;;7.15;6.10;;;;;;;27.80;41.72;96438.34;5048840;28;20033;-78
2021/06/26 10:14:07;;;;;;;8.88;6.97;;;;;;;26.37;42.15;96431.81;5048731;28;20087;-78
2021/06/26 10:16:35;;;;;;;8.07;6.80;;;;;;;27.19;42.12;96437.94;5049050;28;20032;-78
2021/06/26 10:19:02;;;;;;;7.85;6.13;;;;;;;28.62;37.39;96433.97;5048013;28;20032;-78
2021/06/26 10:21:29;;;;;;;8.40;6.03;;;;;;;29.59;35.58;96422.25;5049089;28;20885;-78
2021/06/26 10:23:58;;;;;;;8.80;6.57;;;;;;;26.65;40.69;96428.06;5048757;28;20033;-78
2021/06/26 10:26:24;;;;;;;7.43;6.07;;;;;;;29.91;35.47;96418.34;5050126;28;20035;-78
2021/06/26 10:29:00;;;;;;;7.53;5.88;;;;;;;30.26;35.15;96412.78;5051753;28;20024;-77
2021/06/26 10:31:35;;;;;;;7.88;6.28;;;;;;;28.32;38.80;96418.47;5064632;28;20893;-77
2021/06/26 10:34:13;;;;;;;10.77;8.70;;;;;;;25.55;44.12;96428.19;5049287;28;20104;-78
2021/06/26 10:36:40;;;;;;;9.55;7.57;;;;;;;26.19;43.16;96424.06;5032721;28;20545;-77
2021/06/26 10:39:30;;;;;;;8.82;7.05;;;;;;;26.23;43.08;96419.81;5049274;28;20068;-78
2021/06/26 10:42:04;;;;;;;9.82;6.15;;;;;;;27.40;39.94;96412.72;5040573;28;20049;-77
2021/06/26 10:44:59;;;;;;;7.25;5.25;;;;;;;26.03;43.10;96415.84;5047484;28;20032;-78
2021/06/26 10:47:35;;;;;;;7.72;6.07;;;;;;;27.99;40.27;96410.81;5040753;28;20205;-77
2021/06/26 10:50:19;;;;;;;8.43;5.90;;;;;;;28.06;38.49;96419.47;5053220;28;20089;-77
2021/06/26 10:52:58;;;;;;;8.63;7.47;;;;;;;28.51;39.46;96402.56;5053244;28;20033;-78
2021/06/26 10:55:36;;;;;;;8.25;6.20;;;;;;;28.86;38.30;96407.16;5023996;28;20029;-77
2021/06/26 10:58:04;;;;;;;8.15;6.90;;;;;;;29.47;37.73;96402.75;5042016;28;20394;-78
2021/06/26 11:00:33;;;;;;;9.48;5.82;;;;;;;30.20;34.82;96403.03;5052698;28;20064;-78
2021/06/26 11:03:00;;;;;;;7.90;5.22;;;;;;;28.35;38.46;96409.81;5051471;28;20053;-78
2021/06/26 11:05:28;;;;;;;7.88;5.10;;;;;;;28.92;39.19;96396.34;5040120;28;20029;-77
2021/06/26 11:07:54;;;;;;;9.40;6.32;;;;;;;28.97;37.51;96399.03;5050175;28;20578;-78
2021/06/26 11:10:20;;;;;;;7.60;6.30;;;;;;;28.88;37.35;96402.31;5050280;28;20021;-77
2021/06/26 11:12:48;;;;;;;7.05;5.78;;;;;;;29.00;36.88;96391.22;5049860;28;20490;-78
2021/06/26 11:15:16;;;;;;;9.40;6.53;;;;;;;27.71;39.25;96393.94;5050314;28;20027;-77